Ferndale, CA

12:01 AM PDT on June 25, 2017 (GMT -0700)
5th and Pixley | | Change Station
Active Advisory: Coastal Flood Advisory Active Notice: Coastal Flood Advisory

Elev 56 ft 40.58 °N, 124.27 °W | Updated 23 seconds ago

Mostly Cloudy
Mostly Cloudy
55.6 °F
Feels Like 55.6 °F
N
4.2
Wind Variable Wind from NNW

Today
High -- | Low -- °F
--% Chance of Precip.
Yesterday
High -- | Low -- °F
Precip. -- in
Pressure 29.94 in
Visibility 0.2 miles
Clouds Overcast 200 ft
Dew Point 55 °F
Humidity 97%
Rainfall 0.00 in
Snow Depth Not available.
5:48 AM 8:51 PM
New Moon, 2% visible
METAR KFOT 250635Z AUTO 32003KT 1/4SM OVC002 13/13 A2994 RMK AO1
Pressure 29.94 in
Visibility 0.2 miles
Clouds Overcast 200 ft
Dew Point 55 °F
Humidity 97%
Rainfall 0.00 in
Snow Depth Not available.
5:48 AM 8:51 PM
New Moon, 2% visible
METAR KFOT 250635Z AUTO 32003KT 1/4SM OVC002 13/13 A2994 RMK AO1

Get Your Daily Forecast Email!

Thanks for signing up!

Be on the lookout for a verification email in your inbox.

You'll start receiving severe weather alerts in your inbox..

×

10-Day Weather Forecast

Almanac

Astronomy

Jun. 25, 2017 Rise Set
Actual Time
Civil Twilight
Nautical Twilight
Astronomical Twilight
Moon
Length of Visible Light
Length of Day
Tomorrow will be .
, % of the Moon is Illuminated

Today's Extremes

State Highs State Lows

Community

WunderPhotos

Category 6

Welcome to Category 6. This is the collective home for Weather Underground's featured writeups by Dr. Jeff Masters (right), Bob Henson (left), Chris Burt, and other regular contributors.

Nearby

Air Quality

  Air Quality AQ Index Pollutant
Not available.

Snow Depth

Station Depth Elevation

Earthquake Activity

City Distance Mag. Time & Date
Minimum magnitude displayed is 2.5.

Coastal Water Temperatures

Place Temperature

Stations

Nearby Weather Stations

Station Location Temp. Windchill Dew Point Humidity Wind Precip. Elev Updated Type
                   

Watches & Warnings

Coastal Flood Advisory
Issued: 9:55 PM PDT Jun. 24, 2017 – National Weather Service

... Coastal flood advisory now in effect until 3 am PDT Sunday...

* coastal flooding... high astronomical tides will cause minor
flooding in some low lying areas at King Salmon in Humboldt
Bay. The water level is expected to peak around 8.8 feet MLLW at
the North Spit tide gauge.

* Timing... high tide is at 12:36 am PDT at the Humboldt Bay
North Spit tide gauge. Flooding may begin an hour before or
continue for an hour or two after high tide.

* Impacts... low lying areas will experience minor flooding at
roadways in King Salmon.

Precautionary/preparedness actions...

A coastal flood advisory indicates that onshore winds and tides
will combine to generate flooding of low areas along the shore.